Time;durP1;ratioP1;P1;durP2;ratioP2;P2;SDS_P1;SDS_P2;PMS_P1;PMS_P2;Temp;Humidity;BMP_temperature;BMP_pressure;BME280_temperature;BME280_humidity;BME280_pressure;Samples;Min_cycle;Max_cycle;Signal;HPM_P1;HPM_P2
2022/10/09 00:01:13;;;;;;;6.65;0.90;;;;;;;;;;5045442;28;20057;-80
2022/10/09 00:03:42;;;;;;;1.17;0.77;;;;;;;;;;5046428;28;20520;-80
2022/10/09 00:06:12;;;;;;;1.67;1.30;;;;;;;;;;5049111;28;20044;-79
2022/10/09 00:08:42;;;;;;;1.95;0.70;;;;;;;;;;5048558;28;20084;-80
2022/10/09 00:11:12;;;;;;;1.30;0.60;;;;;;;;;;5046530;28;20064;-80
2022/10/09 00:13:40;;;;;;;0.75;0.60;;;;;;;;;;5044688;28;20049;-80
2022/10/09 00:16:11;;;;;;;2.03;1.35;;;;;;;;;;5043983;28;20056;-80
2022/10/09 00:18:39;;;;;;;1.00;0.50;;;;;;;;;;5053468;28;20053;-80
2022/10/09 00:21:15;;;;;;;0.50;0.43;;;;;;;;;;5036259;28;20236;-81
2022/10/09 00:23:43;;;;;;;3.28;1.33;;;;;;;;;;5049510;28;20515;-81
2022/10/09 00:26:12;;;;;;;1.75;1.10;;;;;;;;;;5034328;28;20398;-81
2022/10/09 00:28:40;;;;;;;1.25;0.85;;;;;;;;;;5049248;28;20048;-81
2022/10/09 00:31:10;;;;;;;2.65;0.90;;;;;;;;;;5050689;28;20060;-81
2022/10/09 00:33:39;;;;;;;1.15;0.73;;;;;;;;;;5047853;28;20057;-81
2022/10/09 00:36:09;;;;;;;4.28;0.65;;;;;;;;;;5047738;28;20135;-81
2022/10/09 00:38:38;;;;;;;1.17;0.57;;;;;;;;;;5043900;28;20051;-81
2022/10/09 00:41:06;;;;;;;0.75;0.55;;;;;;;;;;5044553;28;20045;-81
2022/10/09 00:43:45;;;;;;;2.25;0.88;;;;;;;;;;5042751;28;20060;-81
2022/10/09 00:46:21;;;;;;;1.23;0.57;;;;;;;;;;5042299;28;20052;-81
2022/10/09 00:48:54;;;;;;;2.70;1.25;;;;;;;;;;5038800;28;20134;-81
2022/10/09 00:51:22;;;;;;;1.35;0.80;;;;;;;;;;5047423;28;20041;-82
2022/10/09 00:53:51;;;;;;;3.17;0.60;;;;;;;;;;5044368;28;20463;-81
2022/10/09 00:56:19;;;;;;;1.38;1.08;;;;;;;;;;5054245;28;20060;-81
2022/10/09 00:58:52;;;;;;;0.68;0.65;;;;;;;;;;5055694;28;20045;-82
2022/10/09 01:01:21;;;;;;;1.25;0.88;;;;;;;;;;5035153;28;20061;-81
2022/10/09 01:03:50;;;;;;;0.50;0.50;;;;;;;;;;5045940;28;20052;-81
2022/10/09 01:06:21;;;;;;;1.42;0.85;;;;;;;;;;5040928;28;20480;-81
2022/10/09 01:08:52;;;;;;;1.08;0.73;;;;;;;;;;5039866;28;20050;-81
2022/10/09 01:11:25;;;;;;;2.40;1.00;;;;;;;;;;5030899;28;20048;-81
2022/10/09 01:13:56;;;;;;;2.13;0.93;;;;;;;;;;5043353;28;20037;-81
2022/10/09 01:16:27;;;;;;;1.30;0.80;;;;;;;;;;5059173;28;20150;-81
2022/10/09 01:18:58;;;;;;;0.57;0.57;;;;;;;;;;5046897;28;20045;-81
2022/10/09 01:21:29;;;;;;;1.05;0.90;;;;;;;;;;5039923;28;20057;-81
2022/10/09 01:24:04;;;;;;;0.55;0.55;;;;;;;;;;5037370;28;20128;-81
2022/10/09 01:26:50;;;;;;;0.60;0.60;;;;;;;;;;5044982;28;20064;-81
2022/10/09 01:29:20;;;;;;;0.63;0.38;;;;;;;;;;5025108;28;20048;-81
2022/10/09 01:31:50;;;;;;;0.90;0.80;;;;;;;;;;5034323;28;20057;-81
2022/10/09 01:34:20;;;;;;;1.38;0.68;;;;;;;;;;5038313;28;20049;-81
2022/10/09 01:36:49;;;;;;;1.40;0.75;;;;;;;;;;5042719;28;20046;-81
2022/10/09 01:39:19;;;;;;;1.92;1.00;;;;;;;;;;5037030;28;20049;-81
2022/10/09 01:41:48;;;;;;;0.98;0.75;;;;;;;;;;5043049;28;20037;-81
2022/10/09 01:44:17;;;;;;;0.32;0.20;;;;;;;;;;5047704;28;20048;-81
2022/10/09 01:46:47;;;;;;;3.13;0.80;;;;;;;;;;5040087;28;20052;-81
2022/10/09 01:49:22;;;;;;;1.38;0.90;;;;;;;;;;5043969;28;20059;-81
2022/10/09 01:51:50;;;;;;;;;;;;;;;;;;5037892;28;20057;-83
2022/10/09 01:54:22;;;;;;;1.40;1.10;;;;;;;;;;5040876;28;20383;-81
2022/10/09 01:56:51;;;;;;;3.78;0.80;;;;;;;;;;5038184;28;20060;-82
2022/10/09 01:59:20;;;;;;;3.95;1.45;;;;;;;;;;5046037;28;20064;-81
2022/10/09 02:01:50;;;;;;;1.27;0.93;;;;;;;;;;5055027;28;20043;-82
2022/10/09 02:04:19;;;;;;;5.70;1.73;;;;;;;;;;5051074;28;20056;-81
2022/10/09 02:06:48;;;;;;;3.08;1.73;;;;;;;;;;5047470;28;20055;-81
2022/10/09 02:09:17;;;;;;;1.85;0.88;;;;;;;;;;5041241;28;20056;-82
2022/10/09 02:11:48;;;;;;;2.28;1.50;;;;;;;;;;5045116;28;20044;-82
2022/10/09 02:14:17;;;;;;;0.63;0.40;;;;;;;;;;5052429;28;20603;-81
2022/10/09 02:16:47;;;;;;;1.25;0.63;;;;;;;;;;5048175;28;20429;-82
2022/10/09 02:19:17;;;;;;;0.57;0.57;;;;;;;;;;5044438;28;20421;-82
2022/10/09 02:21:47;;;;;;;1.10;0.80;;;;;;;;;;5043880;28;20497;-81
2022/10/09 02:24:22;;;;;;;1.90;1.08;;;;;;;;;;5050287;28;20131;-81
2022/10/09 02:26:51;;;;;;;1.92;1.38;;;;;;;;;;5039448;28;20285;-81
2022/10/09 02:29:19;;;;;;;1.67;0.85;;;;;;;;;;5052427;28;20579;-81
2022/10/09 02:31:48;;;;;;;2.45;1.33;;;;;;;;;;5047386;28;20474;-82
2022/10/09 02:34:19;;;;;;;2.97;1.00;;;;;;;;;;5045725;28;20053;-82
2022/10/09 02:36:48;;;;;;;1.50;0.82;;;;;;;;;;5047950;28;20714;-81
2022/10/09 02:39:16;;;;;;;1.85;0.70;;;;;;;;;;5046632;28;20484;-82
2022/10/09 02:41:45;;;;;;;0.50;0.50;;;;;;;;;;5043069;28;20071;-82
2022/10/09 02:44:13;;;;;;;1.08;0.95;;;;;;;;;;5036179;28;20068;-81
2022/10/09 02:46:41;;;;;;;3.40;1.33;;;;;;;;;;5043148;28;20049;-81
2022/10/09 02:49:10;;;;;;;0.70;0.55;;;;;;;;;;5045019;28;20512;-82
2022/10/09 02:51:40;;;;;;;1.33;1.10;;;;;;;;;;5045346;28;20497;-82
2022/10/09 02:54:08;;;;;;;1.58;1.10;;;;;;;;;;5039468;28;20051;-82
2022/10/09 02:56:36;;;;;;;1.80;1.13;;;;;;;;;;5037219;28;20042;-82
2022/10/09 02:59:06;;;;;;;2.65;1.63;;;;;;;;;;5040956;28;20067;-82
2022/10/09 03:01:34;;;;;;;1.10;1.00;;;;;;;;;;5041523;28;20049;-81
2022/10/09 03:04:03;;;;;;;0.90;0.77;;;;;;;;;;5049378;28;20496;-81
2022/10/09 03:06:31;;;;;;;0.82;0.82;;;;;;;;;;5049919;28;20126;-82
2022/10/09 03:09:01;;;;;;;1.38;1.27;;;;;;;;;;5045152;28;20431;-82
2022/10/09 03:11:29;;;;;;;1.05;0.85;;;;;;;;;;5048227;28;20049;-82
2022/10/09 03:13:58;;;;;;;0.57;0.57;;;;;;;;;;5046603;28;20468;-81
2022/10/09 03:16:26;;;;;;;1.23;0.80;;;;;;;;;;5048813;28;20404;-82
2022/10/09 03:18:57;;;;;;;1.70;1.60;;;;;;;;;;5046422;28;20144;-82
2022/10/09 03:21:26;;;;;;;1.30;0.60;;;;;;;;;;5050097;28;20045;-81
2022/10/09 03:23:55;;;;;;;1.48;1.08;;;;;;;;;;5033834;28;20041;-81
2022/10/09 03:26:26;;;;;;;1.55;0.93;;;;;;;;;;5039845;28;20047;-82
2022/10/09 03:28:54;;;;;;;1.70;1.23;;;;;;;;;;5048190;28;20405;-82
2022/10/09 03:31:24;;;;;;;2.45;1.08;;;;;;;;;;5056431;28;20049;-83
2022/10/09 03:34:12;;;;;;;2.20;0.65;;;;;;;;;;5048158;28;20041;-81
2022/10/09 03:36:42;;;;;;;6.88;1.10;;;;;;;;;;5047476;28;20048;-81
2022/10/09 03:39:10;;;;;;;1.52;0.80;;;;;;;;;;5032038;28;20052;-82
2022/10/09 03:41:40;;;;;;;1.65;1.10;;;;;;;;;;5045850;28;20061;-82
2022/10/09 03:44:08;;;;;;;2.92;1.92;;;;;;;;;;5040832;28;20056;-81
2022/10/09 03:46:36;;;;;;;1.30;1.00;;;;;;;;;;5042902;28;20045;-81
2022/10/09 03:49:05;;;;;;;4.78;0.80;;;;;;;;;;5047346;28;20077;-81
2022/10/09 03:51:33;;;;;;;1.58;1.17;;;;;;;;;;5044122;28;20425;-82
2022/10/09 03:54:01;;;;;;;2.08;1.30;;;;;;;;;;5053119;28;20045;-81
2022/10/09 03:56:30;;;;;;;9.93;1.60;;;;;;;;;;5041331;28;20057;-82
2022/10/09 03:58:59;;;;;;;0.65;0.65;;;;;;;;;;5051086;28;20041;-81
2022/10/09 04:01:28;;;;;;;1.10;1.00;;;;;;;;;;5033156;28;20050;-82
2022/10/09 04:03:56;;;;;;;1.42;1.02;;;;;;;;;;5049873;28;20049;-81
2022/10/09 04:06:25;;;;;;;0.80;0.80;;;;;;;;;;5051214;28;20060;-81
2022/10/09 04:08:55;;;;;;;1.58;0.88;;;;;;;;;;5048140;28;20132;-82
2022/10/09 04:11:23;;;;;;;0.60;0.60;;;;;;;;;;5046030;28;20057;-81
2022/10/09 04:13:52;;;;;;;0.80;0.77;;;;;;;;;;5045002;28;20064;-82
2022/10/09 04:16:21;;;;;;;1.70;0.90;;;;;;;;;;5057219;28;20136;-82
2022/10/09 04:18:50;;;;;;;2.72;0.75;;;;;;;;;;5048098;28;20048;-81
2022/10/09 04:21:18;;;;;;;0.80;0.77;;;;;;;;;;5035804;28;20052;-81
2022/10/09 04:23:46;;;;;;;2.83;0.50;;;;;;;;;;5048231;28;20493;-82
2022/10/09 04:26:15;;;;;;;1.02;0.95;;;;;;;;;;5048793;28;20045;-82
2022/10/09 04:28:43;;;;;;;1.13;0.75;;;;;;;;;;5049075;28;20056;-82
2022/10/09 04:31:12;;;;;;;2.60;0.75;;;;;;;;;;5053020;28;20048;-81
2022/10/09 04:33:41;;;;;;;2.45;1.65;;;;;;;;;;5045093;28;20052;-81
2022/10/09 04:36:10;;;;;;;2.60;1.15;;;;;;;;;;5044121;28;20045;-81
2022/10/09 04:38:38;;;;;;;2.13;1.20;;;;;;;;;;5036846;28;20045;-82
2022/10/09 04:41:07;;;;;;;2.17;1.02;;;;;;;;;;5041145;28;20045;-82
2022/10/09 04:43:35;;;;;;;1.40;1.23;;;;;;;;;;5040979;28;20046;-82
2022/10/09 04:46:04;;;;;;;1.70;1.10;;;;;;;;;;5053064;28;20051;-81
2022/10/09 04:48:37;;;;;;;2.08;0.95;;;;;;;;;;5043965;28;20046;-81
2022/10/09 04:51:07;;;;;;;4.90;0.95;;;;;;;;;;5047128;28;20041;-82
2022/10/09 04:53:36;;;;;;;1.75;1.15;;;;;;;;;;5032868;28;20042;-82
2022/10/09 04:56:05;;;;;;;1.92;1.33;;;;;;;;;;5052615;28;20040;-82
2022/10/09 04:58:34;;;;;;;3.10;1.15;;;;;;;;;;5046218;28;20496;-82
2022/10/09 05:01:06;;;;;;;0.88;0.88;;;;;;;;;;5044475;28;20045;-82
2022/10/09 05:03:34;;;;;;;1.63;1.02;;;;;;;;;;5049556;28;20049;-82
2022/10/09 05:06:03;;;;;;;4.38;1.70;;;;;;;;;;5049515;28;20041;-82
2022/10/09 05:08:33;;;;;;;1.92;0.90;;;;;;;;;;5034142;28;20052;-82
2022/10/09 05:11:01;;;;;;;2.20;0.95;;;;;;;;;;5041982;28;20056;-81
2022/10/09 05:13:30;;;;;;;2.75;1.27;;;;;;;;;;5040504;28;20053;-81
2022/10/09 05:16:01;;;;;;;1.52;0.77;;;;;;;;;;5052735;28;20045;-82
2022/10/09 05:18:29;;;;;;;0.57;0.57;;;;;;;;;;5041938;28;20045;-82
2022/10/09 05:20:58;;;;;;;1.70;0.70;;;;;;;;;;5039685;28;20049;-81
2022/10/09 05:23:26;;;;;;;0.70;0.70;;;;;;;;;;5044055;28;20045;-82
2022/10/09 05:25:56;;;;;;;1.98;0.95;;;;;;;;;;5033919;28;20052;-82
2022/10/09 05:28:25;;;;;;;1.77;0.85;;;;;;;;;;5047239;28;20365;-82
2022/10/09 05:30:53;;;;;;;0.60;0.60;;;;;;;;;;5042016;28;20114;-82
2022/10/09 05:33:21;;;;;;;2.10;1.52;;;;;;;;;;5042257;28;20404;-82
2022/10/09 05:35:53;;;;;;;1.10;0.90;;;;;;;;;;5047090;28;20044;-82
2022/10/09 05:38:22;;;;;;;0.95;0.90;;;;;;;;;;5039406;28;20052;-81
2022/10/09 05:40:51;;;;;;;1.08;0.73;;;;;;;;;;5038721;28;20045;-82
2022/10/09 05:43:23;;;;;;;0.57;0.57;;;;;;;;;;5034187;28;20049;-81
2022/10/09 05:45:51;;;;;;;1.20;0.77;;;;;;;;;;5041084;28;20063;-81
2022/10/09 05:48:20;;;;;;;1.17;1.05;;;;;;;;;;5042432;28;20057;-81
2022/10/09 05:50:48;;;;;;;2.05;1.15;;;;;;;;;;5035505;28;20041;-82
2022/10/09 05:53:16;;;;;;;2.25;1.05;;;;;;;;;;5048876;28;20136;-81
2022/10/09 05:55:45;;;;;;;0.47;0.47;;;;;;;;;;5038070;28;20515;-82
2022/10/09 05:58:13;;;;;;;0.82;0.45;;;;;;;;;;5039406;28;20048;-82
2022/10/09 06:00:43;;;;;;;2.17;0.90;;;;;;;;;;5025758;28;20053;-81
2022/10/09 06:03:11;;;;;;;0.50;0.50;;;;;;;;;;5040652;28;20052;-82
2022/10/09 06:05:40;;;;;;;2.28;1.13;;;;;;;;;;5049510;28;20103;-82
2022/10/09 06:08:08;;;;;;;3.63;1.05;;;;;;;;;;5042117;28;20052;-82
2022/10/09 06:10:36;;;;;;;4.07;1.08;;;;;;;;;;5040446;28;20061;-82
2022/10/09 06:13:05;;;;;;;1.80;0.73;;;;;;;;;;5036964;28;20052;-82
2022/10/09 06:15:33;;;;;;;1.23;0.80;;;;;;;;;;5031393;28;20057;-82
2022/10/09 06:18:03;;;;;;;1.75;0.75;;;;;;;;;;5039673;28;20049;-82
2022/10/09 06:20:31;;;;;;;1.48;0.90;;;;;;;;;;5041207;28;20049;-82
2022/10/09 06:22:59;;;;;;;5.68;1.20;;;;;;;;;;5042293;28;20045;-83
2022/10/09 06:25:27;;;;;;;0.77;0.63;;;;;;;;;;5041488;28;20053;-83
2022/10/09 06:27:56;;;;;;;2.15;1.40;;;;;;;;;;5040354;28;20047;-82
2022/10/09 06:30:24;;;;;;;1.05;0.90;;;;;;;;;;5033137;28;20484;-83
2022/10/09 06:32:52;;;;;;;3.13;0.70;;;;;;;;;;5048869;28;20055;-82
2022/10/09 06:35:22;;;;;;;3.88;0.98;;;;;;;;;;5040461;28;20056;-83
2022/10/09 06:37:50;;;;;;;0.88;0.75;;;;;;;;;;5035037;28;20055;-82
2022/10/09 06:40:18;;;;;;;0.80;0.55;;;;;;;;;;5045560;28;20056;-82
2022/10/09 06:42:47;;;;;;;4.95;0.88;;;;;;;;;;5034774;28;20501;-82
2022/10/09 06:45:15;;;;;;;3.53;0.85;;;;;;;;;;5032824;28;20055;-83
2022/10/09 06:47:44;;;;;;;1.27;0.93;;;;;;;;;;5038594;28;20049;-82
2022/10/09 06:50:12;;;;;;;1.65;0.95;;;;;;;;;;5042612;28;20080;-83
2022/10/09 06:52:42;;;;;;;1.42;1.13;;;;;;;;;;5041301;28;20045;-82
2022/10/09 06:55:10;;;;;;;3.25;0.88;;;;;;;;;;5042833;28;20049;-82
2022/10/09 06:57:39;;;;;;;6.65;1.00;;;;;;;;;;5041192;28;20051;-83
2022/10/09 07:00:07;;;;;;;3.47;1.02;;;;;;;;;;5032134;28;20053;-82
2022/10/09 07:02:36;;;;;;;0.93;0.68;;;;;;;;;;5040305;28;20049;-83
2022/10/09 07:05:11;;;;;;;2.05;0.77;;;;;;;;;;5043525;28;20509;-82
2022/10/09 07:07:41;;;;;;;1.80;1.08;;;;;;;;;;5037666;28;20524;-82
2022/10/09 07:10:10;;;;;;;1.63;1.20;;;;;;;;;;5043434;28;20056;-83
2022/10/09 07:12:39;;;;;;;2.45;1.13;;;;;;;;;;5034129;28;20060;-82
2022/10/09 07:15:08;;;;;;;3.80;1.20;;;;;;;;;;5035045;28;20042;-82
2022/10/09 07:17:36;;;;;;;1.20;0.75;;;;;;;;;;5048743;28;20063;-86
2022/10/09 07:20:05;;;;;;;1.83;1.08;;;;;;;;;;5033705;28;20370;-82
2022/10/09 07:22:33;;;;;;;1.17;1.08;;;;;;;;;;5031261;28;20052;-83
2022/10/09 07:25:03;;;;;;;1.38;1.10;;;;;;;;;;5030238;28;20075;-83
2022/10/09 07:27:31;;;;;;;1.13;0.88;;;;;;;;;;5034548;28;20057;-83
2022/10/09 07:30:00;;;;;;;4.13;0.93;;;;;;;;;;5035120;28;20063;-83
2022/10/09 07:32:28;;;;;;;1.52;1.02;;;;;;;;;;5044929;28;20420;-83
2022/10/09 07:34:56;;;;;;;0.45;0.45;;;;;;;;;;5037093;28;20408;-83
2022/10/09 07:37:24;;;;;;;3.03;1.05;;;;;;;;;;5031348;28;20048;-83
2022/10/09 07:39:53;;;;;;;1.90;1.15;;;;;;;;;;5042114;28;20065;-82
2022/10/09 07:42:23;;;;;;;3.92;0.95;;;;;;;;;;5032645;28;20053;-83
2022/10/09 07:44:51;;;;;;;19.55;1.60;;;;;;;;;;5038412;28;20047;-83
2022/10/09 07:47:19;;;;;;;0.80;0.75;;;;;;;;;;5040771;28;20060;-83
2022/10/09 07:49:47;;;;;;;0.82;0.82;;;;;;;;;;5037851;28;20053;-82
2022/10/09 07:52:16;;;;;;;4.10;2.65;;;;;;;;;;5032485;28;20505;-83
2022/10/09 07:54:44;;;;;;;3.25;1.05;;;;;;;;;;5030709;28;20041;-83
2022/10/09 07:57:12;;;;;;;3.90;1.20;;;;;;;;;;5036222;28;20048;-82
2022/10/09 07:59:42;;;;;;;0.85;0.60;;;;;;;;;;5035376;28;20532;-83
2022/10/09 08:02:10;;;;;;;2.70;1.02;;;;;;;;;;5040704;28;20567;-83
2022/10/09 08:04:39;;;;;;;4.07;1.52;;;;;;;;;;5034046;28;20056;-83
2022/10/09 08:07:07;;;;;;;2.33;1.13;;;;;;;;;;5034026;28;20057;-83
2022/10/09 08:09:36;;;;;;;0.75;0.63;;;;;;;;;;5042988;28;20072;-83
2022/10/09 08:12:04;;;;;;;23.05;1.20;;;;;;;;;;5037084;28;20060;-83
2022/10/09 08:14:32;;;;;;;3.22;1.08;;;;;;;;;;5023471;28;20420;-83
2022/10/09 08:17:02;;;;;;;1.10;0.98;;;;;;;;;;5036175;28;20056;-83
2022/10/09 08:19:30;;;;;;;1.17;1.10;;;;;;;;;;5044366;28;20052;-83
2022/10/09 08:21:59;;;;;;;0.50;0.40;;;;;;;;;;5040904;28;20037;-83
2022/10/09 08:24:30;;;;;;;1.25;1.15;;;;;;;;;;5043103;28;20124;-83
2022/10/09 08:26:59;;;;;;;1.45;1.05;;;;;;;;;;5046294;28;20045;-83
2022/10/09 08:29:27;;;;;;;1.50;0.93;;;;;;;;;;5030757;28;20444;-82
2022/10/09 08:31:55;;;;;;;5.45;1.77;;;;;;;;;;5034301;28;20362;-83
2022/10/09 08:34:25;;;;;;;2.60;0.95;;;;;;;;;;5037071;28;20045;-82
2022/10/09 08:36:54;;;;;;;6.97;1.05;;;;;;;;;;5040635;28;20787;-82
2022/10/09 08:39:22;;;;;;;2.80;0.98;;;;;;;;;;5044933;28;20060;-82
2022/10/09 08:41:52;;;;;;;2.67;1.80;;;;;;;;;;5036248;28;20045;-82
2022/10/09 08:44:22;;;;;;;2.22;0.93;;;;;;;;;;5046365;28;20049;-83
2022/10/09 08:46:58;;;;;;;1.23;0.95;;;;;;;;;;5036636;28;20048;-82
2022/10/09 08:49:30;;;;;;;1.35;0.95;;;;;;;;;;5046290;28;20476;-83
2022/10/09 08:52:00;;;;;;;21.65;1.48;;;;;;;;;;5036652;28;20049;-82
2022/10/09 08:54:33;;;;;;;1.17;1.08;;;;;;;;;;5041844;28;20501;-82
2022/10/09 08:57:04;;;;;;;1.42;1.20;;;;;;;;;;5043748;28;20057;-82
2022/10/09 08:59:32;;;;;;;12.35;1.35;;;;;;;;;;5046551;28;20047;-83
2022/10/09 09:02:04;;;;;;;3.13;1.52;;;;;;;;;;5020158;28;20053;-82
2022/10/09 09:04:50;;;;;;;1.00;0.60;;;;;;;;;;5009114;28;20104;-82
2022/10/09 09:07:25;;;;;;;1.65;0.77;;;;;;;;;;5013739;28;20058;-82
2022/10/09 09:09:55;;;;;;;3.15;2.50;;;;;;;;;;5029529;28;20435;-83
2022/10/09 09:12:27;;;;;;;1.95;1.48;;;;;;;;;;5017100;28;20482;-82
2022/10/09 09:15:08;;;;;;;1.95;1.33;;;;;;;;;;5035052;28;20053;-82
2022/10/09 09:17:41;;;;;;;2.05;1.02;;;;;;;;;;5033150;28;20405;-82
2022/10/09 09:20:15;;;;;;;2.17;1.05;;;;;;;;;;5018836;28;20513;-82
2022/10/09 09:22:48;;;;;;;3.42;1.40;;;;;;;;;;5020863;28;20053;-82
2022/10/09 09:25:21;;;;;;;2.00;0.85;;;;;;;;;;5031927;28;20048;-82
2022/10/09 09:27:50;;;;;;;2.83;0.88;;;;;;;;;;5029161;28;20060;-82
2022/10/09 09:30:20;;;;;;;2.70;0.88;;;;;;;;;;5026108;28;20061;-82
2022/10/09 09:32:55;;;;;;;3.40;1.00;;;;;;;;;;5028582;28;20111;-82
2022/10/09 09:35:29;;;;;;;4.20;1.30;;;;;;;;;;5028274;28;20045;-82
2022/10/09 09:37:57;;;;;;;4.50;1.52;;;;;;;;;;5019891;28;20046;-83
2022/10/09 09:40:30;;;;;;;4.25;1.10;;;;;;;;;;5028483;28;20553;-82
2022/10/09 09:43:06;;;;;;;1.58;0.75;;;;;;;;;;5028493;28;20057;-82
2022/10/09 09:45:34;;;;;;;2.25;1.20;;;;;;;;;;5017313;28;20085;-83
2022/10/09 09:48:05;;;;;;;2.95;0.95;;;;;;;;;;5030144;28;20045;-82
2022/10/09 09:50:38;;;;;;;1.45;0.85;;;;;;;;;;5031468;28;20057;-82
2022/10/09 09:53:31;;;;;;;2.70;0.75;;;;;;;;;;5026845;28;20492;-82
2022/10/09 09:55:59;;;;;;;4.60;1.00;;;;;;;;;;5028381;28;20073;-82
2022/10/09 09:58:34;;;;;;;4.00;1.60;;;;;;;;;;5022819;28;20045;-82
2022/10/09 10:01:03;;;;;;;2.20;0.93;;;;;;;;;;5026627;28;20045;-82
2022/10/09 10:03:31;;;;;;;1.50;0.95;;;;;;;;;;5039793;28;20111;-82
2022/10/09 10:06:01;;;;;;;3.35;0.90;;;;;;;;;;5045684;28;20051;-81
2022/10/09 10:08:31;;;;;;;0.80;0.55;;;;;;;;;;5042564;28;20140;-82
2022/10/09 10:11:01;;;;;;;1.25;0.80;;;;;;;;;;5044205;28;20127;-82
2022/10/09 10:13:34;;;;;;;2.05;0.90;;;;;;;;;;5042116;28;20053;-82
2022/10/09 10:16:03;;;;;;;2.55;1.00;;;;;;;;;;5044097;28;20045;-82
2022/10/09 10:18:32;;;;;;;3.88;0.98;;;;;;;;;;5038194;28;20045;-83
2022/10/09 10:21:05;;;;;;;2.45;1.13;;;;;;;;;;5037039;28;20049;-81
2022/10/09 10:23:36;;;;;;;2.60;1.02;;;;;;;;;;5043715;28;20501;-83
2022/10/09 10:26:06;;;;;;;0.80;0.60;;;;;;;;;;5042871;28;20443;-82
2022/10/09 10:28:38;;;;;;;2.15;0.98;;;;;;;;;;5044697;28;20053;-82
2022/10/09 10:31:08;;;;;;;1.17;0.82;;;;;;;;;;5044526;28;20103;-82
2022/10/09 10:33:38;;;;;;;1.35;0.85;;;;;;;;;;5048599;28;20045;-81
2022/10/09 10:36:10;;;;;;;0.28;0.22;;;;;;;;;;5047340;28;20063;-81
2022/10/09 10:38:42;;;;;;;3.25;1.05;;;;;;;;;;5043138;28;20045;-81
2022/10/09 10:41:12;;;;;;;1.60;0.95;;;;;;;;;;5041312;28;20047;-81
2022/10/09 10:43:43;;;;;;;2.72;0.95;;;;;;;;;;5039950;28;20041;-81
2022/10/09 10:46:16;;;;;;;3.63;0.85;;;;;;;;;;5043594;28;20504;-81
2022/10/09 10:48:46;;;;;;;0.52;0.52;;;;;;;;;;5040225;28;20049;-81
2022/10/09 10:51:28;;;;;;;2.25;0.70;;;;;;;;;;5040508;28;20258;-81
2022/10/09 10:54:02;;;;;;;2.05;0.80;;;;;;;;;;5038652;28;20148;-81
2022/10/09 10:56:32;;;;;;;1.00;0.40;;;;;;;;;;5041490;28;20071;-81
2022/10/09 10:59:12;;;;;;;1.45;0.63;;;;;;;;;;5041399;28;20063;-81
2022/10/09 11:01:45;;;;;;;0.82;0.57;;;;;;;;;;5043102;28;20053;-82
2022/10/09 11:04:22;;;;;;;4.10;0.95;;;;;;;;;;5050307;28;20064;-82
2022/10/09 11:06:55;;;;;;;0.85;0.30;;;;;;;;;;5041300;28;20049;-82
2022/10/09 11:09:28;;;;;;;2.63;1.00;;;;;;;;;;5049019;28;20145;-82
2022/10/09 11:12:00;;;;;;;1.00;0.98;;;;;;;;;;5047963;28;20052;-82
2022/10/09 11:14:32;;;;;;;0.73;0.73;;;;;;;;;;5059512;28;20461;-82
2022/10/09 11:17:04;;;;;;;2.25;0.40;;;;;;;;;;5052395;28;20037;-82
2022/10/09 11:19:50;;;;;;;2.47;0.70;;;;;;;;;;5050139;28;20041;-82
2022/10/09 11:22:33;;;;;;;2.28;1.63;;;;;;;;;;5045002;28;20049;-82
2022/10/09 11:25:13;;;;;;;9.07;0.85;;;;;;;;;;5042467;28;20038;-84
2022/10/09 11:27:46;;;;;;;1.33;0.60;;;;;;;;;;5050894;28;20049;-83
2022/10/09 11:30:15;;;;;;;0.60;0.60;;;;;;;;;;5047399;28;20087;-80
2022/10/09 11:32:52;;;;;;;0.88;0.70;;;;;;;;;;5052036;28;20049;-80
2022/10/09 11:35:21;;;;;;;0.60;0.60;;;;;;;;;;5045606;28;20045;-81
2022/10/09 11:37:54;;;;;;;1.08;0.77;;;;;;;;;;5047232;28;20045;-82
2022/10/09 11:40:26;;;;;;;1.40;0.55;;;;;;;;;;5050653;28;20044;-82
2022/10/09 11:42:59;;;;;;;1.30;0.60;;;;;;;;;;5048446;28;20089;-82
2022/10/09 11:45:31;;;;;;;1.05;0.50;;;;;;;;;;5051732;28;20518;-82
2022/10/09 11:48:03;;;;;;;2.90;1.20;;;;;;;;;;5049502;28;20044;-82
2022/10/09 11:50:35;;;;;;;0.80;0.45;;;;;;;;;;5047932;28;20067;-82
2022/10/09 11:53:06;;;;;;;2.13;0.80;;;;;;;;;;5044248;28;20050;-82
2022/10/09 11:55:36;;;;;;;2.58;0.70;;;;;;;;;;5048175;28;20064;-82
2022/10/09 11:58:08;;;;;;;0.88;0.70;;;;;;;;;;5049355;28;20390;-82
2022/10/09 12:00:37;;;;;;;1.55;0.63;;;;;;;;;;5049686;28;20492;-82
2022/10/09 12:03:06;;;;;;;2.17;1.13;;;;;;;;;;5027127;28;20554;-83
2022/10/09 12:05:39;;;;;;;0.82;0.77;;;;;;;;;;5031612;28;20037;-82
2022/10/09 12:08:10;;;;;;;3.88;0.57;;;;;;;;;;5033066;28;20045;-82
2022/10/09 12:10:47;;;;;;;1.77;0.75;;;;;;;;;;5027539;28;20078;-83
2022/10/09 12:13:29;;;;;;;4.13;1.42;;;;;;;;;;5030979;28;20056;-82
2022/10/09 12:16:00;;;;;;;1.63;0.77;;;;;;;;;;5030216;28;20041;-82
2022/10/09 12:18:31;;;;;;;1.17;0.50;;;;;;;;;;5025899;28;20149;-82
2022/10/09 12:21:01;;;;;;;0.32;0.32;;;;;;;;;;5033000;28;20408;-82
2022/10/09 12:23:32;;;;;;;0.85;0.70;;;;;;;;;;5022472;28;20052;-83
2022/10/09 12:26:03;;;;;;;0.93;0.63;;;;;;;;;;5029452;28;20053;-82
2022/10/09 12:28:35;;;;;;;1.50;0.80;;;;;;;;;;5029807;28;20041;-83
2022/10/09 12:31:06;;;;;;;0.80;0.40;;;;;;;;;;5030124;28;20041;-82
2022/10/09 12:33:36;;;;;;;0.75;0.68;;;;;;;;;;5018162;28;20466;-83
2022/10/09 12:36:07;;;;;;;1.52;0.73;;;;;;;;;;5028687;28;20049;-82
2022/10/09 12:38:36;;;;;;;1.48;0.68;;;;;;;;;;5027122;28;20046;-84
2022/10/09 12:41:06;;;;;;;0.55;0.45;;;;;;;;;;5025605;28;20056;-83
2022/10/09 12:43:35;;;;;;;0.65;0.55;;;;;;;;;;5021996;28;20053;-83
2022/10/09 12:46:04;;;;;;;1.83;0.70;;;;;;;;;;5025218;28;20493;-82
2022/10/09 12:48:37;;;;;;;1.58;0.70;;;;;;;;;;5026896;28;20045;-82
2022/10/09 12:51:15;;;;;;;0.60;0.40;;;;;;;;;;5028217;28;20518;-82
2022/10/09 12:53:47;;;;;;;2.22;0.60;;;;;;;;;;5026596;28;20104;-82
2022/10/09 12:56:21;;;;;;;1.77;0.77;;;;;;;;;;5026868;28;20135;-82
2022/10/09 12:58:50;;;;;;;1.35;1.02;;;;;;;;;;5023807;28;20486;-83
2022/10/09 13:01:19;;;;;;;3.22;1.00;;;;;;;;;;5024355;28;20057;-83
2022/10/09 13:03:54;;;;;;;2.22;0.77;;;;;;;;;;5042702;28;20115;-83
2022/10/09 13:06:23;;;;;;;0.45;0.45;;;;;;;;;;5043800;28;20052;-83
2022/10/09 13:08:53;;;;;;;3.20;1.10;;;;;;;;;;5047035;28;20049;-82
2022/10/09 13:11:25;;;;;;;1.75;0.55;;;;;;;;;;5052253;28;20135;-82
2022/10/09 13:13:55;;;;;;;1.23;0.40;;;;;;;;;;5051103;28;20048;-82
2022/10/09 13:16:24;;;;;;;0.65;0.60;;;;;;;;;;5041752;28;20051;-82
2022/10/09 13:18:56;;;;;;;6.43;1.02;;;;;;;;;;5048199;28;20053;-82
2022/10/09 13:21:26;;;;;;;1.35;0.45;;;;;;;;;;5041651;28;20059;-82
2022/10/09 13:24:07;;;;;;;1.33;1.10;;;;;;;;;;5041732;28;20115;-82
2022/10/09 13:26:38;;;;;;;1.02;0.40;;;;;;;;;;5045645;28;20037;-81
2022/10/09 13:29:07;;;;;;;1.15;0.60;;;;;;;;;;5045351;28;20045;-83
2022/10/09 13:31:36;;;;;;;1.77;0.90;;;;;;;;;;5040433;28;20040;-81
2022/10/09 13:34:11;;;;;;;0.95;0.60;;;;;;;;;;5045872;28;20440;-81
2022/10/09 13:36:40;;;;;;;1.92;0.80;;;;;;;;;;5050408;28;20057;-81
2022/10/09 13:39:11;;;;;;;1.08;0.50;;;;;;;;;;5050652;28;20047;-81
2022/10/09 13:41:41;;;;;;;0.60;0.60;;;;;;;;;;5045434;28;20424;-81
2022/10/09 13:44:09;;;;;;;1.67;0.60;;;;;;;;;;5051851;28;20070;-82
2022/10/09 13:46:38;;;;;;;2.38;1.02;;;;;;;;;;5042290;28;20064;-82
2022/10/09 14:03:30;;;;;;;1.23;0.73;;;;;;;;;;5523195;23;19928;-88
2022/10/09 14:06:13;;;;;;;0.98;0.70;;;;;;;;;;5061649;28;20072;-86
2022/10/09 14:08:42;;;;;;;0.63;0.63;;;;;;;;;;5061888;28;20054;-85
2022/10/09 14:11:17;;;;;;;1.75;0.93;;;;;;;;;;5068416;28;20052;-83
2022/10/09 14:13:52;;;;;;;0.75;0.52;;;;;;;;;;5068871;28;20456;-83
2022/10/09 14:16:21;;;;;;;2.05;0.65;;;;;;;;;;5066728;28;20056;-83
2022/10/09 14:18:50;;;;;;;0.88;0.65;;;;;;;;;;5067291;28;20057;-83
2022/10/09 14:21:20;;;;;;;0.80;0.50;;;;;;;;;;5066438;28;20056;-81
2022/10/09 14:23:49;;;;;;;1.90;1.02;;;;;;;;;;5066702;28;20080;-83
2022/10/09 14:26:17;;;;;;;1.17;0.68;;;;;;;;;;5065506;28;20044;-83
2022/10/09 14:28:46;;;;;;;1.23;0.93;;;;;;;;;;5060356;28;20049;-83
2022/10/09 14:31:17;;;;;;;1.52;0.73;;;;;;;;;;5065743;28;20048;-83
2022/10/09 14:33:46;;;;;;;1.20;0.52;;;;;;;;;;5068588;28;20491;-82
2022/10/09 14:36:17;;;;;;;2.20;0.80;;;;;;;;;;5070063;28;20076;-83
2022/10/09 14:38:48;;;;;;;1.33;0.45;;;;;;;;;;5068812;28;20136;-83
2022/10/09 14:41:17;;;;;;;0.32;0.32;;;;;;;;;;5067618;28;20058;-83
2022/10/09 14:43:46;;;;;;;1.75;0.60;;;;;;;;;;5065328;28;20052;-83
2022/10/09 14:46:15;;;;;;;1.08;0.65;;;;;;;;;;5067704;28;20040;-83
2022/10/09 14:48:44;;;;;;;0.77;0.75;;;;;;;;;;5066646;28;20040;-87
2022/10/09 14:51:13;;;;;;;2.40;0.73;;;;;;;;;;5068115;28;20048;-87
2022/10/09 14:53:42;;;;;;;0.68;0.57;;;;;;;;;;5065208;28;20084;-86
2022/10/09 14:56:13;;;;;;;1.48;0.80;;;;;;;;;;5069910;28;20074;-88
2022/10/09 14:58:42;;;;;;;1.25;0.40;;;;;;;;;;5076140;28;20085;-88
2022/10/09 15:01:12;;;;;;;0.52;0.50;;;;;;;;;;5061099;28;20055;-87
2022/10/09 15:03:41;;;;;;;1.85;0.80;;;;;;;;;;5058315;28;20037;-88
2022/10/09 15:06:10;;;;;;;0.65;0.47;;;;;;;;;;5074509;28;20112;-87
2022/10/09 15:08:40;;;;;;;0.50;0.50;;;;;;;;;;5085840;28;20047;-86
2022/10/09 15:11:08;;;;;;;1.10;0.60;;;;;;;;;;5085789;28;20132;-86
2022/10/09 15:13:38;;;;;;;2.95;0.77;;;;;;;;;;5073011;28;20049;-87
2022/10/09 15:16:08;;;;;;;3.55;0.80;;;;;;;;;;5073823;28;20055;-87